IGO754C VAAH-VABB
Flight info
| Callsign | IGO754C |
|---|---|
| Flight time | 0h 41m |
| Altitude | 37000 |
| Route | BVR1A BVR R458 BOFIN POKON2A |
| Aircraft | A320/M-SDE3FGHIRWY/LB1 |
Departure
| Time | 2026-04-26 18:42 |
|---|---|
| Airport | Sardar Vallabh Patel International Airport (VAAH) |
Arrival
| Time | 2026-04-26 19:23 |
|---|---|
| Airport | Chhatrapati Shivaji Maharaj International Airport (VABB) |
| Time | Latitude | Longitude | Altitude | Speed | Heading |
|---|---|---|---|---|---|
| 2026-04-26 18:23 | 23.07335 | 72.62409 | 186 ft | 0 kts | 316° |
| 2026-04-26 18:30 | 23.07326 | 72.62418 | 199 ft | 3 kts | 316° |
| 2026-04-26 18:31 | 23.07312 | 72.62433 | 192 ft | 2 kts | 316° |
| 2026-04-26 18:31 | 23.07299 | 72.62445 | 198 ft | 3 kts | 334° |
| 2026-04-26 18:31 | 23.07281 | 72.62451 | 199 ft | 3 kts | 14° |
| 2026-04-26 18:31 | 23.07263 | 72.62442 | 198 ft | 3 kts | 41° |
| 2026-04-26 18:32 | 23.07255 | 72.62433 | 198 ft | 1 kts | 44° |
| 2026-04-26 18:32 | 23.07253 | 72.62431 | 200 ft | 0 kts | 44° |
| 2026-04-26 18:34 | 23.07265 | 72.62445 | 198 ft | 5 kts | 45° |
| 2026-04-26 18:35 | 23.07295 | 72.62477 | 199 ft | 7 kts | 45° |
| 2026-04-26 18:35 | 23.07335 | 72.62521 | 197 ft | 9 kts | 48° |
| 2026-04-26 18:35 | 23.07384 | 72.62580 | 202 ft | 12 kts | 46° |
| 2026-04-26 18:35 | 23.07445 | 72.62649 | 199 ft | 14 kts | 47° |
| 2026-04-26 18:36 | 23.07517 | 72.62731 | 192 ft | 16 kts | 46° |
| 2026-04-26 18:36 | 23.07512 | 72.62812 | 199 ft | 12 kts | 132° |
| 2026-04-26 18:36 | 23.07459 | 72.62901 | 200 ft | 15 kts | 85° |
| 2026-04-26 18:36 | 23.07532 | 72.62990 | 197 ft | 17 kts | 43° |
| 2026-04-26 18:37 | 23.07622 | 72.63085 | 203 ft | 19 kts | 45° |
| 2026-04-26 18:37 | 23.07734 | 72.63204 | 197 ft | 25 kts | 44° |
| 2026-04-26 18:37 | 23.07856 | 72.63332 | 201 ft | 17 kts | 45° |
| 2026-04-26 18:37 | 23.07865 | 72.63428 | 203 ft | 13 kts | 123° |
| 2026-04-26 18:38 | 23.07812 | 72.63512 | 196 ft | 14 kts | 105° |
| 2026-04-26 18:38 | 23.07869 | 72.63601 | 201 ft | 17 kts | 40° |
| 2026-04-26 18:38 | 23.07959 | 72.63699 | 202 ft | 20 kts | 44° |
| 2026-04-26 18:38 | 23.08061 | 72.63810 | 198 ft | 22 kts | 46° |
| 2026-04-26 18:39 | 23.08185 | 72.63943 | 203 ft | 27 kts | 44° |
| 2026-04-26 18:39 | 23.08321 | 72.64089 | 205 ft | 28 kts | 44° |
| 2026-04-26 18:39 | 23.08467 | 72.64239 | 203 ft | 29 kts | 44° |
| 2026-04-26 18:39 | 23.08620 | 72.64405 | 200 ft | 33 kts | 44° |
| 2026-04-26 18:40 | 23.08752 | 72.64549 | 202 ft | 24 kts | 45° |
| 2026-04-26 18:40 | 23.08788 | 72.64641 | 204 ft | 10 kts | 55° |
| 2026-04-26 18:40 | 23.08818 | 72.64629 | 198 ft | 8 kts | 284° |
| 2026-04-26 18:40 | 23.08793 | 72.64591 | 193 ft | 0 kts | 226° |
| 2026-04-26 18:41 | 23.08764 | 72.64560 | 191 ft | 27 kts | 225° |
| 2026-04-26 18:41 | 23.08281 | 72.64041 | 200 ft | 114 kts | 225° |
| 2026-04-26 18:41 | 23.07849 | 72.63578 | 195 ft | 147 kts | 224° |
| 2026-04-26 18:42 | 23.07059 | 72.62719 | 542 ft | 162 kts | 226° |
| 2026-04-26 18:42 | 23.06265 | 72.61845 | 1175 ft | 163 kts | 228° |
| 2026-04-26 18:42 | 23.05451 | 72.60970 | 1844 ft | 163 kts | 229° |
| 2026-04-26 18:42 | 23.04648 | 72.60108 | 2206 ft | 179 kts | 229° |
| 2026-04-26 18:43 | 23.03678 | 72.59122 | 2336 ft | 205 kts | 218° |
| 2026-04-26 18:43 | 23.02237 | 72.58641 | 2534 ft | 237 kts | 180° |
| 2026-04-26 18:43 | 23.00511 | 72.58929 | 2800 ft | 264 kts | 171° |
| 2026-04-26 18:43 | 22.98664 | 72.59362 | 3310 ft | 277 kts | 169° |
| 2026-04-26 18:44 | 22.96797 | 72.59832 | 4033 ft | 281 kts | 169° |
| 2026-04-26 18:44 | 22.94852 | 72.60327 | 4807 ft | 285 kts | 169° |
| 2026-04-26 18:44 | 22.92911 | 72.60815 | 5580 ft | 287 kts | 169° |
| 2026-04-26 18:44 | 22.90954 | 72.61300 | 6354 ft | 290 kts | 169° |
| 2026-04-26 18:45 | 22.88975 | 72.61783 | 7110 ft | 292 kts | 169° |
| 2026-04-26 18:45 | 22.86985 | 72.62264 | 7882 ft | 294 kts | 169° |
| 2026-04-26 18:45 | 22.84975 | 72.62747 | 8670 ft | 297 kts | 169° |
| 2026-04-26 18:45 | 22.82951 | 72.63230 | 9453 ft | 299 kts | 169° |
| 2026-04-26 18:46 | 22.80907 | 72.63715 | 10152 ft | 304 kts | 169° |
| 2026-04-26 18:46 | 22.78764 | 72.64221 | 10350 ft | 327 kts | 169° |
| 2026-04-26 18:46 | 22.76478 | 72.64764 | 10686 ft | 342 kts | 169° |
| 2026-04-26 18:46 | 22.74138 | 72.65326 | 11276 ft | 347 kts | 168° |
| 2026-04-26 18:47 | 22.71768 | 72.65896 | 11917 ft | 351 kts | 168° |
| 2026-04-26 18:47 | 22.69329 | 72.66481 | 12167 ft | 367 kts | 168° |
| 2026-04-26 18:47 | 22.66810 | 72.67084 | 12642 ft | 374 kts | 168° |
| 2026-04-26 18:47 | 22.64257 | 72.67693 | 13238 ft | 377 kts | 168° |
| 2026-04-26 18:48 | 22.61679 | 72.68303 | 13815 ft | 380 kts | 167° |
| 2026-04-26 18:48 | 22.59088 | 72.68913 | 14374 ft | 382 kts | 168° |
| 2026-04-26 18:48 | 22.56484 | 72.69527 | 14934 ft | 384 kts | 168° |
| 2026-04-26 18:48 | 22.53865 | 72.70146 | 15480 ft | 387 kts | 167° |
| 2026-04-26 18:49 | 22.51226 | 72.70773 | 16029 ft | 389 kts | 167° |
| 2026-04-26 18:49 | 22.48571 | 72.71405 | 16570 ft | 392 kts | 168° |
| 2026-04-26 18:49 | 22.45893 | 72.72042 | 17100 ft | 395 kts | 167° |
| 2026-04-26 18:49 | 22.43197 | 72.72682 | 17631 ft | 399 kts | 167° |
| 2026-04-26 18:50 | 22.40476 | 72.73330 | 18133 ft | 402 kts | 167° |
| 2026-04-26 18:50 | 22.37728 | 72.73981 | 18586 ft | 406 kts | 167° |
| 2026-04-26 18:50 | 22.34924 | 72.74644 | 19052 ft | 409 kts | 167° |
| 2026-04-26 18:50 | 22.32138 | 72.75305 | 19541 ft | 412 kts | 167° |
| 2026-04-26 18:51 | 22.29327 | 72.75971 | 20000 ft | 414 kts | 167° |
| 2026-04-26 18:51 | 22.26507 | 72.76639 | 20475 ft | 417 kts | 167° |
| 2026-04-26 18:51 | 22.23665 | 72.77313 | 20935 ft | 420 kts | 167° |
| 2026-04-26 18:51 | 22.20802 | 72.77994 | 21392 ft | 422 kts | 167° |
| 2026-04-26 18:52 | 22.17924 | 72.78678 | 21831 ft | 425 kts | 167° |
| 2026-04-26 18:52 | 22.15029 | 72.79364 | 22269 ft | 427 kts | 167° |
| 2026-04-26 18:52 | 22.12113 | 72.80054 | 22662 ft | 431 kts | 167° |
| 2026-04-26 18:52 | 22.09147 | 72.80753 | 22766 ft | 441 kts | 167° |
| 2026-04-26 18:53 | 22.06107 | 72.81466 | 22782 ft | 453 kts | 167° |
| 2026-04-26 18:53 | 22.02995 | 72.82196 | 22779 ft | 463 kts | 167° |
| 2026-04-26 18:53 | 21.99816 | 72.82943 | 22782 ft | 472 kts | 167° |
| 2026-04-26 18:53 | 21.96572 | 72.83708 | 22784 ft | 481 kts | 167° |
| 2026-04-26 18:54 | 21.93283 | 72.84483 | 22785 ft | 486 kts | 167° |
| 2026-04-26 18:54 | 21.89973 | 72.85263 | 22785 ft | 488 kts | 167° |
| 2026-04-26 18:54 | 21.86656 | 72.86044 | 22788 ft | 488 kts | 167° |
| 2026-04-26 18:54 | 21.83338 | 72.86827 | 22789 ft | 488 kts | 167° |
| 2026-04-26 18:55 | 21.80025 | 72.87608 | 22791 ft | 488 kts | 167° |
| 2026-04-26 18:55 | 21.76702 | 72.88389 | 22792 ft | 488 kts | 167° |
| 2026-04-26 18:55 | 21.73386 | 72.89167 | 22795 ft | 488 kts | 167° |
| 2026-04-26 18:55 | 21.70069 | 72.89945 | 22795 ft | 488 kts | 167° |
| 2026-04-26 18:56 | 21.66748 | 72.90723 | 22797 ft | 488 kts | 167° |
| 2026-04-26 18:56 | 21.63438 | 72.91499 | 22795 ft | 488 kts | 167° |
| 2026-04-26 18:56 | 21.60124 | 72.92275 | 22796 ft | 488 kts | 167° |
| 2026-04-26 18:56 | 21.56805 | 72.93052 | 22798 ft | 488 kts | 167° |
| 2026-04-26 18:57 | 21.53488 | 72.93827 | 22798 ft | 487 kts | 167° |
| 2026-04-26 18:57 | 21.51249 | 72.94350 | 22799 ft | 487 kts | 167° |
| 2026-04-26 18:57 | 21.46866 | 72.95377 | 22798 ft | 487 kts | 167° |
| 2026-04-26 18:57 | 21.43577 | 72.96147 | 22802 ft | 487 kts | 167° |
| 2026-04-26 18:58 | 21.40304 | 72.96913 | 22800 ft | 487 kts | 167° |
| 2026-04-26 18:58 | 21.36994 | 72.97686 | 22804 ft | 487 kts | 167° |
| 2026-04-26 18:58 | 21.33639 | 72.98469 | 22807 ft | 487 kts | 167° |
| 2026-04-26 18:58 | 21.30336 | 72.99239 | 22810 ft | 487 kts | 167° |
| 2026-04-26 18:59 | 21.27023 | 73.00010 | 22808 ft | 486 kts | 167° |
| 2026-04-26 18:59 | 21.23709 | 73.00736 | 22805 ft | 486 kts | 172° |
| 2026-04-26 18:59 | 21.20339 | 73.01013 | 22807 ft | 487 kts | 176° |
| 2026-04-26 18:59 | 21.16966 | 73.01227 | 22802 ft | 487 kts | 176° |
| 2026-04-26 19:00 | 21.13593 | 73.01440 | 22803 ft | 487 kts | 176° |
| 2026-04-26 19:00 | 21.10205 | 73.01648 | 22809 ft | 486 kts | 176° |
| 2026-04-26 19:00 | 21.06832 | 73.01851 | 22807 ft | 486 kts | 176° |
| 2026-04-26 19:00 | 21.03440 | 73.02052 | 22811 ft | 486 kts | 176° |
| 2026-04-26 19:01 | 21.00059 | 73.02253 | 22815 ft | 486 kts | 176° |
| 2026-04-26 19:01 | 20.96679 | 73.02455 | 22816 ft | 486 kts | 176° |
| 2026-04-26 19:01 | 20.93307 | 73.02658 | 22813 ft | 486 kts | 176° |
| 2026-04-26 19:01 | 20.89936 | 73.02862 | 22810 ft | 486 kts | 177° |
| 2026-04-26 19:02 | 20.86561 | 73.03069 | 22813 ft | 485 kts | 177° |
| 2026-04-26 19:02 | 20.83194 | 73.03278 | 22815 ft | 485 kts | 177° |
| 2026-04-26 19:02 | 20.79820 | 73.03486 | 22808 ft | 485 kts | 177° |
| 2026-04-26 19:02 | 20.77590 | 73.03622 | 22807 ft | 485 kts | 177° |
| 2026-04-26 19:03 | 20.73097 | 73.03892 | 22815 ft | 485 kts | 177° |
| 2026-04-26 19:03 | 20.69721 | 73.04091 | 22817 ft | 485 kts | 178° |
| 2026-04-26 19:03 | 20.66354 | 73.04291 | 22824 ft | 485 kts | 178° |
| 2026-04-26 19:03 | 20.62985 | 73.04493 | 22822 ft | 485 kts | 178° |
| 2026-04-26 19:04 | 20.59614 | 73.04698 | 22822 ft | 485 kts | 178° |
| 2026-04-26 19:04 | 20.56251 | 73.04903 | 22818 ft | 485 kts | 178° |
| 2026-04-26 19:04 | 20.52885 | 73.05106 | 22825 ft | 485 kts | 178° |
| 2026-04-26 19:04 | 20.49534 | 73.05308 | 22829 ft | 485 kts | 178° |
| 2026-04-26 19:05 | 20.42781 | 73.05714 | 22832 ft | 484 kts | 178° |
| 2026-04-26 19:05 | 20.39423 | 73.05916 | 22830 ft | 484 kts | 178° |
| 2026-04-26 19:05 | 20.36055 | 73.06119 | 22825 ft | 484 kts | 178° |
| 2026-04-26 19:06 | 20.32648 | 73.06325 | 22783 ft | 484 kts | 178° |
| 2026-04-26 19:06 | 20.29330 | 73.06525 | 22473 ft | 483 kts | 178° |
| 2026-04-26 19:06 | 20.25983 | 73.06725 | 22174 ft | 480 kts | 178° |
| 2026-04-26 19:06 | 20.22614 | 73.06929 | 21750 ft | 478 kts | 178° |
| 2026-04-26 19:07 | 20.19302 | 73.07132 | 21330 ft | 475 kts | 178° |
| 2026-04-26 19:07 | 20.16017 | 73.07330 | 20918 ft | 472 kts | 178° |
| 2026-04-26 19:07 | 20.12741 | 73.07526 | 20509 ft | 469 kts | 178° |
| 2026-04-26 19:07 | 20.09496 | 73.07721 | 20106 ft | 467 kts | 178° |
| 2026-04-26 19:08 | 20.06260 | 73.07916 | 19708 ft | 464 kts | 177° |
| 2026-04-26 19:08 | 20.03046 | 73.08109 | 19315 ft | 461 kts | 177° |
| 2026-04-26 19:08 | 19.99849 | 73.08300 | 18931 ft | 459 kts | 177° |
| 2026-04-26 19:08 | 19.96673 | 73.08488 | 18543 ft | 456 kts | 177° |
| 2026-04-26 19:09 | 19.93510 | 73.08674 | 18167 ft | 454 kts | 177° |
| 2026-04-26 19:09 | 19.90366 | 73.08860 | 17731 ft | 451 kts | 177° |
| 2026-04-26 19:09 | 19.87249 | 73.09046 | 17303 ft | 447 kts | 177° |
| 2026-04-26 19:09 | 19.84154 | 73.09231 | 16876 ft | 444 kts | 177° |
| 2026-04-26 19:10 | 19.81081 | 73.09414 | 16454 ft | 440 kts | 176° |
| 2026-04-26 19:10 | 19.78031 | 73.09595 | 16038 ft | 437 kts | 176° |
| 2026-04-26 19:10 | 19.75005 | 73.09775 | 15626 ft | 433 kts | 176° |
| 2026-04-26 19:10 | 19.72009 | 73.09957 | 15136 ft | 429 kts | 176° |
| 2026-04-26 19:11 | 19.69040 | 73.10135 | 14650 ft | 425 kts | 176° |
| 2026-04-26 19:11 | 19.66100 | 73.10311 | 14167 ft | 422 kts | 176° |
| 2026-04-26 19:11 | 19.63185 | 73.10484 | 13688 ft | 418 kts | 176° |
| 2026-04-26 19:11 | 19.60315 | 73.10654 | 13164 ft | 408 kts | 176° |
| 2026-04-26 19:12 | 19.57819 | 73.10804 | 12783 ft | 397 kts | 176° |
| 2026-04-26 19:12 | 19.55099 | 73.10969 | 12363 ft | 385 kts | 176° |
| 2026-04-26 19:12 | 19.52466 | 73.11126 | 11951 ft | 375 kts | 176° |
| 2026-04-26 19:12 | 19.49887 | 73.11278 | 11543 ft | 366 kts | 176° |
| 2026-04-26 19:13 | 19.47375 | 73.11427 | 11130 ft | 358 kts | 176° |
| 2026-04-26 19:13 | 19.44909 | 73.11573 | 10741 ft | 351 kts | 176° |
| 2026-04-26 19:13 | 19.42504 | 73.11716 | 10347 ft | 338 kts | 177° |
| 2026-04-26 19:13 | 19.40213 | 73.11855 | 9955 ft | 322 kts | 177° |
| 2026-04-26 19:14 | 19.38019 | 73.11988 | 9567 ft | 309 kts | 177° |
| 2026-04-26 19:14 | 19.35918 | 73.12112 | 9220 ft | 296 kts | 177° |
| 2026-04-26 19:14 | 19.34546 | 73.12192 | 8982 ft | 289 kts | 177° |
| 2026-04-26 19:14 | 19.33230 | 73.12269 | 8754 ft | 282 kts | 177° |
| 2026-04-26 19:15 | 19.30646 | 73.12421 | 8121 ft | 278 kts | 177° |
| 2026-04-26 19:15 | 19.28706 | 73.12537 | 7523 ft | 280 kts | 178° |
| 2026-04-26 19:15 | 19.26746 | 73.12655 | 6957 ft | 282 kts | 178° |
| 2026-04-26 19:15 | 19.24809 | 73.12772 | 6572 ft | 276 kts | 178° |
| 2026-04-26 19:16 | 19.22902 | 73.12887 | 6151 ft | 272 kts | 178° |
| 2026-04-26 19:16 | 19.21026 | 73.12999 | 5721 ft | 268 kts | 178° |
| 2026-04-26 19:16 | 19.19177 | 73.13109 | 5300 ft | 264 kts | 178° |
| 2026-04-26 19:16 | 19.17359 | 73.13215 | 4877 ft | 260 kts | 178° |
| 2026-04-26 19:17 | 19.15576 | 73.13318 | 4452 ft | 256 kts | 178° |
| 2026-04-26 19:17 | 19.13824 | 73.13279 | 4211 ft | 242 kts | 193° |
| 2026-04-26 19:17 | 19.12279 | 73.12752 | 4212 ft | 222 kts | 210° |
| 2026-04-26 19:17 | 19.11067 | 73.11907 | 4165 ft | 209 kts | 225° |
| 2026-04-26 19:18 | 19.10108 | 73.10786 | 4028 ft | 201 kts | 240° |
| 2026-04-26 19:18 | 19.09470 | 73.09493 | 3825 ft | 197 kts | 254° |
| 2026-04-26 19:18 | 19.09170 | 73.08106 | 3621 ft | 192 kts | 269° |
| 2026-04-26 19:18 | 19.09135 | 73.06702 | 3392 ft | 191 kts | 272° |
| 2026-04-26 19:19 | 19.09117 | 73.05302 | 3156 ft | 190 kts | 272° |
| 2026-04-26 19:19 | 19.09099 | 73.03908 | 2925 ft | 190 kts | 272° |
| 2026-04-26 19:19 | 19.09081 | 73.02518 | 2683 ft | 189 kts | 271° |
| 2026-04-26 19:19 | 19.09063 | 73.01128 | 2451 ft | 188 kts | 270° |
| 2026-04-26 19:20 | 19.09046 | 72.99746 | 2215 ft | 188 kts | 270° |
| 2026-04-26 19:20 | 19.09034 | 72.98836 | 2056 ft | 186 kts | 269° |
| 2026-04-26 19:20 | 19.09010 | 72.97059 | 1743 ft | 173 kts | 268° |
| 2026-04-26 19:20 | 19.08995 | 72.95849 | 1536 ft | 158 kts | 267° |
| 2026-04-26 19:21 | 19.08980 | 72.94733 | 1343 ft | 148 kts | 268° |
| 2026-04-26 19:21 | 19.08965 | 72.93655 | 1158 ft | 146 kts | 267° |
| 2026-04-26 19:21 | 19.08951 | 72.92590 | 975 ft | 144 kts | 267° |
| 2026-04-26 19:21 | 19.08937 | 72.91528 | 795 ft | 146 kts | 268° |
| 2026-04-26 19:22 | 19.08927 | 72.90469 | 592 ft | 146 kts | 268° |
| 2026-04-26 19:22 | 19.08911 | 72.89416 | 407 ft | 141 kts | 269° |
| 2026-04-26 19:22 | 19.08895 | 72.88384 | 215 ft | 140 kts | 266° |
| 2026-04-26 19:22 | 19.08881 | 72.87355 | 47 ft | 139 kts | 268° |
| 2026-04-26 19:23 | 19.08869 | 72.86424 | 27 ft | 106 kts | 269° |
| 2026-04-26 19:23 | 19.08859 | 72.85875 | 24 ft | 51 kts | 270° |
| 2026-04-26 19:23 | 19.08907 | 72.85601 | 26 ft | 37 kts | 293° |
| 2026-04-26 19:23 | 19.09005 | 72.85421 | 27 ft | 20 kts | 332° |
| 2026-04-26 19:24 | 19.09091 | 72.85408 | 25 ft | 7 kts | 359° |
| 2026-04-26 19:24 | 19.09139 | 72.85411 | 25 ft | 3 kts | 1° |
| 2026-04-26 19:24 | 19.09160 | 72.85411 | 27 ft | 0 kts | 360° |